sensor_id;sensor_type;location;lat;lon;timestamp;temperature;humidity
8778;DHT22;4425;50.872;4.712;2023-02-19T00:01:07;11.00;99.90
8778;DHT22;4425;50.872;4.712;2023-02-19T00:03:35;11.00;99.90
8778;DHT22;4425;50.872;4.712;2023-02-19T00:06:03;10.90;99.90
8778;DHT22;4425;50.872;4.712;2023-02-19T00:08:30;11.00;99.90
8778;DHT22;4425;50.872;4.712;2023-02-19T00:11:01;11.00;99.90
8778;DHT22;4425;50.872;4.712;2023-02-19T00:13:30;10.90;99.90
8778;DHT22;4425;50.872;4.712;2023-02-19T00:16:04;10.90;99.90
8778;DHT22;4425;50.872;4.712;2023-02-19T00:18:33;10.90;99.90
8778;DHT22;4425;50.872;4.712;2023-02-19T00:21:00;10.90;99.90
8778;DHT22;4425;50.872;4.712;2023-02-19T00:23:28;10.90;99.90
8778;DHT22;4425;50.872;4.712;2023-02-19T00:25:55;10.90;99.90
8778;DHT22;4425;50.872;4.712;2023-02-19T00:28:22;10.90;99.90
8778;DHT22;4425;50.872;4.712;2023-02-19T00:30:51;10.90;99.90
8778;DHT22;4425;50.872;4.712;2023-02-19T00:33:18;10.90;99.90
8778;DHT22;4425;50.872;4.712;2023-02-19T00:35:46;10.90;99.90
8778;DHT22;4425;50.872;4.712;2023-02-19T00:38:13;10.90;99.90
8778;DHT22;4425;50.872;4.712;2023-02-19T00:40:40;10.90;99.90
8778;DHT22;4425;50.872;4.712;2023-02-19T00:43:08;10.90;99.90
8778;DHT22;4425;50.872;4.712;2023-02-19T00:45:35;10.90;99.90
8778;DHT22;4425;50.872;4.712;2023-02-19T00:48:04;10.80;99.90
8778;DHT22;4425;50.872;4.712;2023-02-19T00:50:31;10.90;99.90
8778;DHT22;4425;50.872;4.712;2023-02-19T00:52:58;10.90;99.90
8778;DHT22;4425;50.872;4.712;2023-02-19T00:55:25;10.90;99.90
8778;DHT22;4425;50.872;4.712;2023-02-19T00:57:52;10.90;99.90
8778;DHT22;4425;50.872;4.712;2023-02-19T01:00:19;11.00;99.90
8778;DHT22;4425;50.872;4.712;2023-02-19T01:02:47;10.90;99.90
8778;DHT22;4425;50.872;4.712;2023-02-19T01:05:15;10.90;99.90
8778;DHT22;4425;50.872;4.712;2023-02-19T01:07:42;10.90;99.90
8778;DHT22;4425;50.872;4.712;2023-02-19T01:10:10;10.90;99.90
8778;DHT22;4425;50.872;4.712;2023-02-19T01:12:37;10.90;99.90
8778;DHT22;4425;50.872;4.712;2023-02-19T01:15:05;10.90;99.90
8778;DHT22;4425;50.872;4.712;2023-02-19T01:17:34;10.90;99.90
8778;DHT22;4425;50.872;4.712;2023-02-19T01:20:01;10.90;99.90
8778;DHT22;4425;50.872;4.712;2023-02-19T01:22:29;10.90;99.90
8778;DHT22;4425;50.872;4.712;2023-02-19T01:24:56;10.90;99.90
8778;DHT22;4425;50.872;4.712;2023-02-19T01:27:23;10.90;99.90
8778;DHT22;4425;50.872;4.712;2023-02-19T01:29:50;10.90;99.90
8778;DHT22;4425;50.872;4.712;2023-02-19T01:32:17;10.90;99.90
8778;DHT22;4425;50.872;4.712;2023-02-19T01:34:44;10.90;99.90
8778;DHT22;4425;50.872;4.712;2023-02-19T01:37:12;10.80;99.90
8778;DHT22;4425;50.872;4.712;2023-02-19T01:39:41;10.90;99.90
8778;DHT22;4425;50.872;4.712;2023-02-19T01:42:13;10.90;99.90
8778;DHT22;4425;50.872;4.712;2023-02-19T01:45:15;10.90;99.90
8778;DHT22;4425;50.872;4.712;2023-02-19T01:47:45;10.90;99.90
8778;DHT22;4425;50.872;4.712;2023-02-19T01:50:12;10.90;99.90
8778;DHT22;4425;50.872;4.712;2023-02-19T01:52:39;10.90;99.90
8778;DHT22;4425;50.872;4.712;2023-02-19T01:55:10;10.80;99.90
8778;DHT22;4425;50.872;4.712;2023-02-19T01:57:40;10.70;99.90
8778;DHT22;4425;50.872;4.712;2023-02-19T02:00:12;10.80;99.90
8778;DHT22;4425;50.872;4.712;2023-02-19T02:02:42;10.80;99.90
8778;DHT22;4425;50.872;4.712;2023-02-19T02:05:19;10.80;99.90
8778;DHT22;4425;50.872;4.712;2023-02-19T02:07:50;10.80;99.90
8778;DHT22;4425;50.872;4.712;2023-02-19T02:10:36;10.90;99.90
8778;DHT22;4425;50.872;4.712;2023-02-19T02:13:04;10.80;99.90
8778;DHT22;4425;50.872;4.712;2023-02-19T02:15:37;10.80;99.90
8778;DHT22;4425;50.872;4.712;2023-02-19T02:18:10;10.80;99.90
8778;DHT22;4425;50.872;4.712;2023-02-19T02:20:57;10.80;99.90
8778;DHT22;4425;50.872;4.712;2023-02-19T02:23:38;10.70;99.90
8778;DHT22;4425;50.872;4.712;2023-02-19T02:26:25;10.80;99.90
8778;DHT22;4425;50.872;4.712;2023-02-19T02:29:13;10.70;99.90
8778;DHT22;4425;50.872;4.712;2023-02-19T02:31:47;10.70;99.90
8778;DHT22;4425;50.872;4.712;2023-02-19T02:34:17;10.70;99.90
8778;DHT22;4425;50.872;4.712;2023-02-19T02:36:48;10.70;99.90
8778;DHT22;4425;50.872;4.712;2023-02-19T02:39:20;10.60;99.90
8778;DHT22;4425;50.872;4.712;2023-02-19T02:41:50;10.80;99.90
8778;DHT22;4425;50.872;4.712;2023-02-19T02:44:34;10.70;99.90
8778;DHT22;4425;50.872;4.712;2023-02-19T02:47:05;10.70;99.90
8778;DHT22;4425;50.872;4.712;2023-02-19T02:49:53;10.70;99.90
8778;DHT22;4425;50.872;4.712;2023-02-19T02:52:31;10.70;99.90
8778;DHT22;4425;50.872;4.712;2023-02-19T02:55:17;10.70;99.90
8778;DHT22;4425;50.872;4.712;2023-02-19T02:57:45;10.70;99.90
8778;DHT22;4425;50.872;4.712;2023-02-19T03:00:12;10.70;99.90
8778;DHT22;4425;50.872;4.712;2023-02-19T03:02:42;10.70;99.90
8778;DHT22;4425;50.872;4.712;2023-02-19T03:05:12;10.60;99.90
8778;DHT22;4425;50.872;4.712;2023-02-19T03:08:01;10.60;99.90
8778;DHT22;4425;50.872;4.712;2023-02-19T03:10:35;10.70;99.90
8778;DHT22;4425;50.872;4.712;2023-02-19T03:13:03;10.60;99.90
8778;DHT22;4425;50.872;4.712;2023-02-19T03:15:54;10.60;99.90
8778;DHT22;4425;50.872;4.712;2023-02-19T03:18:42;10.60;99.90
8778;DHT22;4425;50.872;4.712;2023-02-19T03:21:29;10.70;99.90
8778;DHT22;4425;50.872;4.712;2023-02-19T03:23:58;10.60;99.90
8778;DHT22;4425;50.872;4.712;2023-02-19T03:26:44;10.60;99.90
8778;DHT22;4425;50.872;4.712;2023-02-19T03:29:19;10.50;99.90
8778;DHT22;4425;50.872;4.712;2023-02-19T03:31:53;10.60;99.90
8778;DHT22;4425;50.872;4.712;2023-02-19T03:34:25;10.60;99.90
8778;DHT22;4425;50.872;4.712;2023-02-19T03:36:59;10.60;99.90
8778;DHT22;4425;50.872;4.712;2023-02-19T03:39:27;10.60;99.90
8778;DHT22;4425;50.872;4.712;2023-02-19T03:42:00;10.50;99.90
8778;DHT22;4425;50.872;4.712;2023-02-19T03:44:36;10.60;99.90
8778;DHT22;4425;50.872;4.712;2023-02-19T03:47:12;10.60;99.90
8778;DHT22;4425;50.872;4.712;2023-02-19T03:49:44;10.60;99.90
8778;DHT22;4425;50.872;4.712;2023-02-19T03:52:19;10.60;99.90
8778;DHT22;4425;50.872;4.712;2023-02-19T03:54:51;10.60;99.90
8778;DHT22;4425;50.872;4.712;2023-02-19T03:57:24;10.60;99.90
8778;DHT22;4425;50.872;4.712;2023-02-19T03:59:58;10.50;99.90
8778;DHT22;4425;50.872;4.712;2023-02-19T04:02:30;10.60;99.90
8778;DHT22;4425;50.872;4.712;2023-02-19T04:05:04;10.50;99.90
8778;DHT22;4425;50.872;4.712;2023-02-19T04:07:35;10.60;99.90
8778;DHT22;4425;50.872;4.712;2023-02-19T04:10:05;10.60;99.90
8778;DHT22;4425;50.872;4.712;2023-02-19T04:12:35;10.60;99.90
8778;DHT22;4425;50.872;4.712;2023-02-19T04:15:07;10.60;99.90
8778;DHT22;4425;50.872;4.712;2023-02-19T04:17:37;10.50;99.90
8778;DHT22;4425;50.872;4.712;2023-02-19T04:20:10;10.60;99.90
8778;DHT22;4425;50.872;4.712;2023-02-19T04:22:39;10.60;99.90
8778;DHT22;4425;50.872;4.712;2023-02-19T04:25:07;10.50;99.90
8778;DHT22;4425;50.872;4.712;2023-02-19T04:27:35;10.60;99.90
8778;DHT22;4425;50.872;4.712;2023-02-19T04:30:03;10.60;99.90
8778;DHT22;4425;50.872;4.712;2023-02-19T04:32:30;10.60;99.90
8778;DHT22;4425;50.872;4.712;2023-02-19T04:34:57;10.60;99.90
8778;DHT22;4425;50.872;4.712;2023-02-19T04:37:26;10.60;99.90
8778;DHT22;4425;50.872;4.712;2023-02-19T04:39:53;10.60;99.90
8778;DHT22;4425;50.872;4.712;2023-02-19T04:42:20;10.60;99.90
8778;DHT22;4425;50.872;4.712;2023-02-19T04:44:47;10.60;99.90
8778;DHT22;4425;50.872;4.712;2023-02-19T04:47:14;10.50;99.90
8778;DHT22;4425;50.872;4.712;2023-02-19T04:49:42;10.60;99.90
8778;DHT22;4425;50.872;4.712;2023-02-19T04:52:09;10.60;99.90
8778;DHT22;4425;50.872;4.712;2023-02-19T04:54:37;10.50;99.90
8778;DHT22;4425;50.872;4.712;2023-02-19T04:57:04;10.50;99.90
8778;DHT22;4425;50.872;4.712;2023-02-19T04:59:31;10.50;99.90
8778;DHT22;4425;50.872;4.712;2023-02-19T05:01:59;10.50;99.90
8778;DHT22;4425;50.872;4.712;2023-02-19T05:04:26;10.50;99.90
8778;DHT22;4425;50.872;4.712;2023-02-19T05:06:54;10.50;99.90
8778;DHT22;4425;50.872;4.712;2023-02-19T05:09:20;10.40;99.90
8778;DHT22;4425;50.872;4.712;2023-02-19T05:11:49;10.60;99.90
8778;DHT22;4425;50.872;4.712;2023-02-19T05:14:16;10.50;99.90
8778;DHT22;4425;50.872;4.712;2023-02-19T05:16:43;10.50;99.90
8778;DHT22;4425;50.872;4.712;2023-02-19T05:19:10;10.40;99.90
8778;DHT22;4425;50.872;4.712;2023-02-19T05:21:37;10.50;99.90
8778;DHT22;4425;50.872;4.712;2023-02-19T05:24:05;10.50;99.90
8778;DHT22;4425;50.872;4.712;2023-02-19T05:26:32;10.50;99.90
8778;DHT22;4425;50.872;4.712;2023-02-19T05:29:04;10.40;99.90
8778;DHT22;4425;50.872;4.712;2023-02-19T05:31:31;10.40;99.90
8778;DHT22;4425;50.872;4.712;2023-02-19T05:33:59;10.40;99.90
8778;DHT22;4425;50.872;4.712;2023-02-19T05:36:27;10.40;99.90
8778;DHT22;4425;50.872;4.712;2023-02-19T05:38:56;10.40;99.90
8778;DHT22;4425;50.872;4.712;2023-02-19T05:41:24;10.40;99.90
8778;DHT22;4425;50.872;4.712;2023-02-19T05:43:52;10.40;99.90
8778;DHT22;4425;50.872;4.712;2023-02-19T05:46:23;10.40;99.90
8778;DHT22;4425;50.872;4.712;2023-02-19T05:48:51;10.50;99.90
8778;DHT22;4425;50.872;4.712;2023-02-19T05:51:20;10.30;99.90
8778;DHT22;4425;50.872;4.712;2023-02-19T05:53:47;10.40;99.90
8778;DHT22;4425;50.872;4.712;2023-02-19T05:56:25;10.40;99.90
8778;DHT22;4425;50.872;4.712;2023-02-19T05:58:54;10.40;99.90
8778;DHT22;4425;50.872;4.712;2023-02-19T06:01:24;10.40;99.90
8778;DHT22;4425;50.872;4.712;2023-02-19T06:03:52;10.30;99.90
8778;DHT22;4425;50.872;4.712;2023-02-19T06:06:20;10.30;99.90
8778;DHT22;4425;50.872;4.712;2023-02-19T06:08:48;10.30;99.90
8778;DHT22;4425;50.872;4.712;2023-02-19T06:11:16;10.30;99.90
8778;DHT22;4425;50.872;4.712;2023-02-19T06:13:44;10.30;99.90
8778;DHT22;4425;50.872;4.712;2023-02-19T06:16:13;10.20;99.90
8778;DHT22;4425;50.872;4.712;2023-02-19T06:18:43;10.30;99.90
8778;DHT22;4425;50.872;4.712;2023-02-19T06:21:11;10.50;99.90
8778;DHT22;4425;50.872;4.712;2023-02-19T06:23:41;10.30;99.90
8778;DHT22;4425;50.872;4.712;2023-02-19T06:26:09;10.30;99.90
8778;DHT22;4425;50.872;4.712;2023-02-19T06:28:36;10.30;99.90
8778;DHT22;4425;50.872;4.712;2023-02-19T06:31:04;10.30;99.90
8778;DHT22;4425;50.872;4.712;2023-02-19T06:33:32;10.30;99.90
8778;DHT22;4425;50.872;4.712;2023-02-19T06:36:02;10.30;99.90
8778;DHT22;4425;50.872;4.712;2023-02-19T06:38:30;10.30;99.90
8778;DHT22;4425;50.872;4.712;2023-02-19T06:40:59;10.30;99.90
8778;DHT22;4425;50.872;4.712;2023-02-19T06:43:27;10.30;99.90
8778;DHT22;4425;50.872;4.712;2023-02-19T06:45:56;10.30;99.90
8778;DHT22;4425;50.872;4.712;2023-02-19T06:48:24;10.30;99.90
8778;DHT22;4425;50.872;4.712;2023-02-19T06:50:51;10.30;99.90
8778;DHT22;4425;50.872;4.712;2023-02-19T06:53:20;10.30;99.90
8778;DHT22;4425;50.872;4.712;2023-02-19T06:55:54;10.20;99.90
8778;DHT22;4425;50.872;4.712;2023-02-19T06:58:22;10.20;99.90
8778;DHT22;4425;50.872;4.712;2023-02-19T07:00:49;10.20;99.90
8778;DHT22;4425;50.872;4.712;2023-02-19T07:03:16;10.30;99.90
8778;DHT22;4425;50.872;4.712;2023-02-19T07:05:43;10.20;99.90
8778;DHT22;4425;50.872;4.712;2023-02-19T07:08:10;10.30;99.90
8778;DHT22;4425;50.872;4.712;2023-02-19T07:10:42;10.30;99.90
8778;DHT22;4425;50.872;4.712;2023-02-19T07:13:09;10.30;99.90
8778;DHT22;4425;50.872;4.712;2023-02-19T07:15:36;10.30;99.90
8778;DHT22;4425;50.872;4.712;2023-02-19T07:18:03;10.30;99.90
8778;DHT22;4425;50.872;4.712;2023-02-19T07:20:35;10.30;99.90
8778;DHT22;4425;50.872;4.712;2023-02-19T07:23:01;10.30;99.90
8778;DHT22;4425;50.872;4.712;2023-02-19T07:25:28;10.30;99.90
8778;DHT22;4425;50.872;4.712;2023-02-19T07:27:57;10.30;99.90
8778;DHT22;4425;50.872;4.712;2023-02-19T07:30:24;10.40;99.90
8778;DHT22;4425;50.872;4.712;2023-02-19T07:32:51;10.30;99.90
8778;DHT22;4425;50.872;4.712;2023-02-19T07:35:18;10.40;99.90
8778;DHT22;4425;50.872;4.712;2023-02-19T07:37:45;10.40;99.90
8778;DHT22;4425;50.872;4.712;2023-02-19T07:40:12;10.40;99.90
8778;DHT22;4425;50.872;4.712;2023-02-19T07:42:39;10.50;99.90
8778;DHT22;4425;50.872;4.712;2023-02-19T07:45:08;10.50;99.90
8778;DHT22;4425;50.872;4.712;2023-02-19T07:47:35;10.50;99.90
8778;DHT22;4425;50.872;4.712;2023-02-19T07:50:02;10.50;99.90
8778;DHT22;4425;50.872;4.712;2023-02-19T07:52:29;10.60;99.90
8778;DHT22;4425;50.872;4.712;2023-02-19T07:54:56;10.60;99.90
8778;DHT22;4425;50.872;4.712;2023-02-19T07:57:23;10.60;99.90
8778;DHT22;4425;50.872;4.712;2023-02-19T07:59:50;10.60;99.90
8778;DHT22;4425;50.872;4.712;2023-02-19T08:02:19;10.70;99.90
8778;DHT22;4425;50.872;4.712;2023-02-19T08:05:06;10.60;99.90
8778;DHT22;4425;50.872;4.712;2023-02-19T08:07:34;10.50;99.90
8778;DHT22;4425;50.872;4.712;2023-02-19T08:10:03;10.50;99.90
8778;DHT22;4425;50.872;4.712;2023-02-19T08:12:54;10.50;99.90
8778;DHT22;4425;50.872;4.712;2023-02-19T08:15:39;10.40;99.90
8778;DHT22;4425;50.872;4.712;2023-02-19T08:18:08;10.50;99.90
8778;DHT22;4425;50.872;4.712;2023-02-19T08:20:36;10.50;99.90
8778;DHT22;4425;50.872;4.712;2023-02-19T08:23:04;10.50;99.90
8778;DHT22;4425;50.872;4.712;2023-02-19T08:25:34;10.60;99.90
8778;DHT22;4425;50.872;4.712;2023-02-19T08:28:01;10.50;99.90
8778;DHT22;4425;50.872;4.712;2023-02-19T08:30:29;10.50;99.90
8778;DHT22;4425;50.872;4.712;2023-02-19T08:32:57;10.40;99.90
8778;DHT22;4425;50.872;4.712;2023-02-19T08:35:26;10.40;99.90
8778;DHT22;4425;50.872;4.712;2023-02-19T08:37:54;10.40;99.90
8778;DHT22;4425;50.872;4.712;2023-02-19T08:40:22;10.50;99.90
8778;DHT22;4425;50.872;4.712;2023-02-19T08:42:49;10.40;99.90
8778;DHT22;4425;50.872;4.712;2023-02-19T08:45:16;10.50;99.90
8778;DHT22;4425;50.872;4.712;2023-02-19T08:47:44;10.50;99.90
8778;DHT22;4425;50.872;4.712;2023-02-19T08:50:11;10.50;99.90
8778;DHT22;4425;50.872;4.712;2023-02-19T08:52:39;10.60;99.90
8778;DHT22;4425;50.872;4.712;2023-02-19T08:55:07;10.50;99.90
8778;DHT22;4425;50.872;4.712;2023-02-19T08:57:35;10.50;99.90
8778;DHT22;4425;50.872;4.712;2023-02-19T09:00:03;10.60;99.90
8778;DHT22;4425;50.872;4.712;2023-02-19T09:02:32;10.50;99.90
8778;DHT22;4425;50.872;4.712;2023-02-19T09:05:02;10.60;99.90
8778;DHT22;4425;50.872;4.712;2023-02-19T09:07:30;10.60;99.90
8778;DHT22;4425;50.872;4.712;2023-02-19T09:09:59;10.60;99.90
8778;DHT22;4425;50.872;4.712;2023-02-19T09:12:26;10.60;99.90
8778;DHT22;4425;50.872;4.712;2023-02-19T09:14:53;10.60;99.90
8778;DHT22;4425;50.872;4.712;2023-02-19T09:17:21;10.70;99.90
8778;DHT22;4425;50.872;4.712;2023-02-19T09:19:50;10.70;99.90
8778;DHT22;4425;50.872;4.712;2023-02-19T09:22:17;10.70;99.90
8778;DHT22;4425;50.872;4.712;2023-02-19T09:24:44;10.80;99.90
8778;DHT22;4425;50.872;4.712;2023-02-19T09:27:17;10.80;99.90
8778;DHT22;4425;50.872;4.712;2023-02-19T09:29:45;10.80;99.90
8778;DHT22;4425;50.872;4.712;2023-02-19T09:32:13;10.80;99.90
8778;DHT22;4425;50.872;4.712;2023-02-19T09:34:40;11.00;99.90
8778;DHT22;4425;50.872;4.712;2023-02-19T09:37:08;11.00;99.90
8778;DHT22;4425;50.872;4.712;2023-02-19T09:39:35;11.10;99.90
8778;DHT22;4425;50.872;4.712;2023-02-19T09:42:08;11.00;99.90
8778;DHT22;4425;50.872;4.712;2023-02-19T09:44:42;11.10;99.90
8778;DHT22;4425;50.872;4.712;2023-02-19T09:47:15;11.10;99.90
8778;DHT22;4425;50.872;4.712;2023-02-19T09:49:44;11.20;99.90
8778;DHT22;4425;50.872;4.712;2023-02-19T09:52:18;11.30;99.90
8778;DHT22;4425;50.872;4.712;2023-02-19T09:54:48;11.40;99.90
8778;DHT22;4425;50.872;4.712;2023-02-19T09:57:18;11.50;99.90
8778;DHT22;4425;50.872;4.712;2023-02-19T09:59:50;11.60;99.90
8778;DHT22;4425;50.872;4.712;2023-02-19T10:02:20;11.70;99.90
8778;DHT22;4425;50.872;4.712;2023-02-19T10:04:48;11.70;99.90
8778;DHT22;4425;50.872;4.712;2023-02-19T10:07:18;11.70;99.90
8778;DHT22;4425;50.872;4.712;2023-02-19T10:09:50;11.60;99.90
8778;DHT22;4425;50.872;4.712;2023-02-19T10:12:25;11.50;99.90
8778;DHT22;4425;50.872;4.712;2023-02-19T10:14:58;11.40;99.90
8778;DHT22;4425;50.872;4.712;2023-02-19T10:17:30;11.30;99.90
8778;DHT22;4425;50.872;4.712;2023-02-19T10:20:03;11.40;99.90
8778;DHT22;4425;50.872;4.712;2023-02-19T10:22:31;11.60;99.90
8778;DHT22;4425;50.872;4.712;2023-02-19T10:24:58;11.70;99.90
8778;DHT22;4425;50.872;4.712;2023-02-19T10:27:28;11.70;99.90
8778;DHT22;4425;50.872;4.712;2023-02-19T10:29:59;11.60;99.90
8778;DHT22;4425;50.872;4.712;2023-02-19T10:32:27;11.70;99.90
8778;DHT22;4425;50.872;4.712;2023-02-19T10:35:07;11.70;99.90
8778;DHT22;4425;50.872;4.712;2023-02-19T10:37:35;11.90;99.90
8778;DHT22;4425;50.872;4.712;2023-02-19T10:40:16;12.00;99.90
8778;DHT22;4425;50.872;4.712;2023-02-19T10:42:45;12.10;99.90
8778;DHT22;4425;50.872;4.712;2023-02-19T10:45:20;12.10;99.90
8778;DHT22;4425;50.872;4.712;2023-02-19T10:47:49;12.10;99.90
8778;DHT22;4425;50.872;4.712;2023-02-19T10:50:25;12.00;99.90
8778;DHT22;4425;50.872;4.712;2023-02-19T10:52:56;11.80;99.90
8778;DHT22;4425;50.872;4.712;2023-02-19T10:55:26;11.70;99.90
8778;DHT22;4425;50.872;4.712;2023-02-19T10:57:54;11.80;99.90
8778;DHT22;4425;50.872;4.712;2023-02-19T11:00:25;11.70;99.90
8778;DHT22;4425;50.872;4.712;2023-02-19T11:03:28;11.70;99.90
8778;DHT22;4425;50.872;4.712;2023-02-19T11:06:00;11.70;99.90
8778;DHT22;4425;50.872;4.712;2023-02-19T11:08:29;11.70;99.90
8778;DHT22;4425;50.872;4.712;2023-02-19T11:10:59;11.70;99.90
8778;DHT22;4425;50.872;4.712;2023-02-19T11:13:28;11.80;99.90
8778;DHT22;4425;50.872;4.712;2023-02-19T11:16:01;11.90;99.90
8778;DHT22;4425;50.872;4.712;2023-02-19T11:18:30;11.70;99.90
8778;DHT22;4425;50.872;4.712;2023-02-19T11:21:02;12.10;99.90
8778;DHT22;4425;50.872;4.712;2023-02-19T11:23:30;12.00;99.90
8778;DHT22;4425;50.872;4.712;2023-02-19T11:26:00;12.00;99.90
8778;DHT22;4425;50.872;4.712;2023-02-19T11:28:30;12.00;99.90
8778;DHT22;4425;50.872;4.712;2023-02-19T11:31:21;12.00;99.90
8778;DHT22;4425;50.872;4.712;2023-02-19T11:33:58;11.90;99.90
8778;DHT22;4425;50.872;4.712;2023-02-19T11:36:31;11.90;99.90
8778;DHT22;4425;50.872;4.712;2023-02-19T11:39:06;11.90;
8778;DHT22;4425;50.872;4.712;2023-02-19T11:42:09;11.90;99.90
8778;DHT22;4425;50.872;4.712;2023-02-19T11:45:05;11.80;99.90
8778;DHT22;4425;50.872;4.712;2023-02-19T11:50:41;11.90;99.90
8778;DHT22;4425;50.872;4.712;2023-02-19T11:53:17;11.80;99.90
8778;DHT22;4425;50.872;4.712;2023-02-19T11:55:57;11.90;99.90
8778;DHT22;4425;50.872;4.712;2023-02-19T11:58:46;11.90;99.90
8778;DHT22;4425;50.872;4.712;2023-02-19T12:01:20;11.90;99.90
8778;DHT22;4425;50.872;4.712;2023-02-19T12:07:09;11.70;99.90
8778;DHT22;4425;50.872;4.712;2023-02-19T12:09:48;11.70;99.90
8778;DHT22;4425;50.872;4.712;2023-02-19T12:12:36;11.50;99.90
8778;DHT22;4425;50.872;4.712;2023-02-19T12:15:24;11.60;99.90
8778;DHT22;4425;50.872;4.712;2023-02-19T12:18:12;11.60;99.90
8778;DHT22;4425;50.872;4.712;2023-02-19T12:20:53;11.60;99.90
8778;DHT22;4425;50.872;4.712;2023-02-19T12:23:37;11.60;99.90
8778;DHT22;4425;50.872;4.712;2023-02-19T12:26:18;11.70;99.90
8778;DHT22;4425;50.872;4.712;2023-02-19T12:29:23;11.70;99.90
8778;DHT22;4425;50.872;4.712;2023-02-19T12:32:11;11.70;99.90
8778;DHT22;4425;50.872;4.712;2023-02-19T12:37:40;11.80;99.90
8778;DHT22;4425;50.872;4.712;2023-02-19T12:40:30;11.70;99.90
8778;DHT22;4425;50.872;4.712;2023-02-19T12:43:11;11.80;99.90
8778;DHT22;4425;50.872;4.712;2023-02-19T12:45:51;11.80;99.90
8778;DHT22;4425;50.872;4.712;2023-02-19T12:48:26;11.80;99.90
8778;DHT22;4425;50.872;4.712;2023-02-19T12:50:57;11.80;99.90
8778;DHT22;4425;50.872;4.712;2023-02-19T12:53:39;11.70;99.90
8778;DHT22;4425;50.872;4.712;2023-02-19T12:56:12;11.80;99.90
8778;DHT22;4425;50.872;4.712;2023-02-19T12:58:44;11.90;99.90
8778;DHT22;4425;50.872;4.712;2023-02-19T13:01:17;11.80;99.90
8778;DHT22;4425;50.872;4.712;2023-02-19T13:03:48;11.70;99.90
8778;DHT22;4425;50.872;4.712;2023-02-19T13:06:26;11.60;99.90
8778;DHT22;4425;50.872;4.712;2023-02-19T13:09:02;11.50;99.90
8778;DHT22;4425;50.872;4.712;2023-02-19T13:11:35;11.50;99.90
8778;DHT22;4425;50.872;4.712;2023-02-19T13:14:09;11.50;99.90
8778;DHT22;4425;50.872;4.712;2023-02-19T13:16:39;11.40;99.90
8778;DHT22;4425;50.872;4.712;2023-02-19T13:19:09;11.30;99.90
8778;DHT22;4425;50.872;4.712;2023-02-19T13:21:40;11.30;99.90
8778;DHT22;4425;50.872;4.712;2023-02-19T13:24:29;11.20;99.90
8778;DHT22;4425;50.872;4.712;2023-02-19T13:27:05;11.20;99.90
8778;DHT22;4425;50.872;4.712;2023-02-19T13:29:54;11.30;99.90
8778;DHT22;4425;50.872;4.712;2023-02-19T13:32:42;11.30;99.90
8778;DHT22;4425;50.872;4.712;2023-02-19T13:35:23;11.30;99.90
8778;DHT22;4425;50.872;4.712;2023-02-19T13:37:53;11.20;99.90
8778;DHT22;4425;50.872;4.712;2023-02-19T13:40:26;11.30;99.90
8778;DHT22;4425;50.872;4.712;2023-02-19T13:42:58;11.30;99.90
8778;DHT22;4425;50.872;4.712;2023-02-19T13:45:31;11.30;99.90
8778;DHT22;4425;50.872;4.712;2023-02-19T13:48:13;11.30;99.90
8778;DHT22;4425;50.872;4.712;2023-02-19T13:50:41;11.30;99.90
8778;DHT22;4425;50.872;4.712;2023-02-19T13:53:47;11.30;99.90
8778;DHT22;4425;50.872;4.712;2023-02-19T13:56:39;11.30;99.90
8778;DHT22;4425;50.872;4.712;2023-02-19T13:59:33;11.30;99.90
8778;DHT22;4425;50.872;4.712;2023-02-19T14:02:09;11.20;99.90
8778;DHT22;4425;50.872;4.712;2023-02-19T14:04:44;11.10;99.90
8778;DHT22;4425;50.872;4.712;2023-02-19T14:10:57;11.00;99.90
8778;DHT22;4425;50.872;4.712;2023-02-19T14:13:59;10.90;99.90
8778;DHT22;4425;50.872;4.712;2023-02-19T14:16:56;10.80;99.90
8778;DHT22;4425;50.872;4.712;2023-02-19T14:19:49;10.70;99.90
8778;DHT22;4425;50.872;4.712;2023-02-19T14:22:49;10.60;99.90
8778;DHT22;4425;50.872;4.712;2023-02-19T14:25:28;10.50;99.90
8778;DHT22;4425;50.872;4.712;2023-02-19T14:27:59;10.50;99.90
8778;DHT22;4425;50.872;4.712;2023-02-19T14:30:29;10.50;99.90
8778;DHT22;4425;50.872;4.712;2023-02-19T14:32:57;10.60;99.90
8778;DHT22;4425;50.872;4.712;2023-02-19T14:35:31;10.60;99.90
8778;DHT22;4425;50.872;4.712;2023-02-19T14:38:02;10.60;99.90
8778;DHT22;4425;50.872;4.712;2023-02-19T14:40:34;10.50;99.90
8778;DHT22;4425;50.872;4.712;2023-02-19T14:43:03;10.50;99.90
8778;DHT22;4425;50.872;4.712;2023-02-19T14:45:40;10.50;99.90
8778;DHT22;4425;50.872;4.712;2023-02-19T14:48:19;10.40;99.90
8778;DHT22;4425;50.872;4.712;2023-02-19T14:50:49;10.40;99.90
8778;DHT22;4425;50.872;4.712;2023-02-19T14:53:19;10.40;99.90
8778;DHT22;4425;50.872;4.712;2023-02-19T14:55:48;10.40;99.90
8778;DHT22;4425;50.872;4.712;2023-02-19T14:58:19;10.40;99.90
8778;DHT22;4425;50.872;4.712;2023-02-19T15:00:48;10.40;99.90
8778;DHT22;4425;50.872;4.712;2023-02-19T15:03:28;10.40;99.90
8778;DHT22;4425;50.872;4.712;2023-02-19T15:05:58;10.50;99.90
8778;DHT22;4425;50.872;4.712;2023-02-19T15:08:31;10.40;99.90
8778;DHT22;4425;50.872;4.712;2023-02-19T15:11:00;10.30;99.90
8778;DHT22;4425;50.872;4.712;2023-02-19T15:13:28;10.30;99.90
8778;DHT22;4425;50.872;4.712;2023-02-19T15:15:58;10.30;99.90
8778;DHT22;4425;50.872;4.712;2023-02-19T15:18:26;10.30;99.90
8778;DHT22;4425;50.872;4.712;2023-02-19T15:20:59;10.40;99.90
8778;DHT22;4425;50.872;4.712;2023-02-19T15:23:30;10.40;99.90
8778;DHT22;4425;50.872;4.712;2023-02-19T15:25:58;10.40;99.90
8778;DHT22;4425;50.872;4.712;2023-02-19T15:28:29;10.40;99.90
8778;DHT22;4425;50.872;4.712;2023-02-19T15:31:09;10.40;99.90
8778;DHT22;4425;50.872;4.712;2023-02-19T15:33:38;10.40;99.90
8778;DHT22;4425;50.872;4.712;2023-02-19T15:36:08;10.50;99.90
8778;DHT22;4425;50.872;4.712;2023-02-19T15:38:35;10.60;99.90
8778;DHT22;4425;50.872;4.712;2023-02-19T15:41:03;10.60;99.90
8778;DHT22;4425;50.872;4.712;2023-02-19T15:43:33;10.50;99.90
8778;DHT22;4425;50.872;4.712;2023-02-19T15:46:07;10.60;99.90
8778;DHT22;4425;50.872;4.712;2023-02-19T15:48:38;10.60;99.90
8778;DHT22;4425;50.872;4.712;2023-02-19T15:51:12;10.60;99.90
8778;DHT22;4425;50.872;4.712;2023-02-19T15:53:44;10.70;99.90
8778;DHT22;4425;50.872;4.712;2023-02-19T15:56:17;10.50;99.90
8778;DHT22;4425;50.872;4.712;2023-02-19T15:58:49;10.50;99.90
8778;DHT22;4425;50.872;4.712;2023-02-19T16:01:21;10.50;99.90
8778;DHT22;4425;50.872;4.712;2023-02-19T16:03:50;10.30;99.90
8778;DHT22;4425;50.872;4.712;2023-02-19T16:06:23;10.20;99.90
8778;DHT22;4425;50.872;4.712;2023-02-19T16:08:59;10.20;99.90
8778;DHT22;4425;50.872;4.712;2023-02-19T16:11:29;10.20;99.90
8778;DHT22;4425;50.872;4.712;2023-02-19T16:17:04;10.10;99.90
8778;DHT22;4425;50.872;4.712;2023-02-19T16:19:43;10.10;99.90
8778;DHT22;4425;50.872;4.712;2023-02-19T16:22:12;10.00;99.90
8778;DHT22;4425;50.872;4.712;2023-02-19T16:24:42;10.00;99.90
8778;DHT22;4425;50.872;4.712;2023-02-19T16:27:11;9.90;99.90
8778;DHT22;4425;50.872;4.712;2023-02-19T16:29:39;9.90;99.90
8778;DHT22;4425;50.872;4.712;2023-02-19T16:32:15;9.90;99.90
8778;DHT22;4425;50.872;4.712;2023-02-19T16:34:43;9.90;99.90
8778;DHT22;4425;50.872;4.712;2023-02-19T16:37:33;9.90;99.90
8778;DHT22;4425;50.872;4.712;2023-02-19T16:43:25;9.90;99.90
8778;DHT22;4425;50.872;4.712;2023-02-19T16:45:52;9.90;99.90
8778;DHT22;4425;50.872;4.712;2023-02-19T16:48:22;9.90;99.90
8778;DHT22;4425;50.872;4.712;2023-02-19T16:50:49;9.90;99.90
8778;DHT22;4425;50.872;4.712;2023-02-19T16:53:18;9.70;99.90